sensor_id;sensor_type;location;lat;lon;timestamp;P1;durP1;ratioP1;P2;durP2;ratioP2
32094;SDS011;18608;53.688;10.748;2023-02-08T00:01:18;22.50;;;14.10;;
32094;SDS011;18608;53.688;10.748;2023-02-08T00:03:45;27.43;;;15.43;;
32094;SDS011;18608;53.688;10.748;2023-02-08T00:06:11;25.17;;;15.17;;
32094;SDS011;18608;53.688;10.748;2023-02-08T00:08:37;24.33;;;14.50;;
32094;SDS011;18608;53.688;10.748;2023-02-08T00:11:04;25.50;;;15.47;;
32094;SDS011;18608;53.688;10.748;2023-02-08T00:13:31;31.27;;;16.27;;
32094;SDS011;18608;53.688;10.748;2023-02-08T00:15:58;31.47;;;14.73;;
32094;SDS011;18608;53.688;10.748;2023-02-08T00:18:24;25.13;;;15.77;;
32094;SDS011;18608;53.688;10.748;2023-02-08T00:20:49;24.70;;;14.40;;
32094;SDS011;18608;53.688;10.748;2023-02-08T00:23:15;23.10;;;14.90;;
32094;SDS011;18608;53.688;10.748;2023-02-08T00:25:41;28.77;;;16.33;;
32094;SDS011;18608;53.688;10.748;2023-02-08T00:28:08;25.17;;;12.90;;
32094;SDS011;18608;53.688;10.748;2023-02-08T00:30:36;24.90;;;14.77;;
32094;SDS011;18608;53.688;10.748;2023-02-08T00:33:03;23.93;;;14.10;;
32094;SDS011;18608;53.688;10.748;2023-02-08T00:35:28;22.77;;;13.40;;
32094;SDS011;18608;53.688;10.748;2023-02-08T00:37:55;23.63;;;15.87;;
32094;SDS011;18608;53.688;10.748;2023-02-08T00:40:21;23.13;;;12.90;;
32094;SDS011;18608;53.688;10.748;2023-02-08T00:42:46;25.70;;;14.20;;
32094;SDS011;18608;53.688;10.748;2023-02-08T00:45:12;21.53;;;13.10;;
32094;SDS011;18608;53.688;10.748;2023-02-08T00:47:38;24.03;;;13.63;;
32094;SDS011;18608;53.688;10.748;2023-02-08T00:50:04;25.30;;;15.07;;
32094;SDS011;18608;53.688;10.748;2023-02-08T00:52:30;30.33;;;13.70;;
32094;SDS011;18608;53.688;10.748;2023-02-08T00:54:56;19.90;;;13.53;;
32094;SDS011;18608;53.688;10.748;2023-02-08T00:57:23;28.33;;;14.97;;
32094;SDS011;18608;53.688;10.748;2023-02-08T00:59:49;25.73;;;14.60;;
32094;SDS011;18608;53.688;10.748;2023-02-08T01:02:14;22.83;;;13.40;;
32094;SDS011;18608;53.688;10.748;2023-02-08T01:04:40;22.73;;;14.17;;
32094;SDS011;18608;53.688;10.748;2023-02-08T01:07:06;27.60;;;15.73;;
32094;SDS011;18608;53.688;10.748;2023-02-08T01:09:32;23.00;;;14.37;;
32094;SDS011;18608;53.688;10.748;2023-02-08T01:11:58;20.23;;;13.23;;
32094;SDS011;18608;53.688;10.748;2023-02-08T01:14:24;29.47;;;13.50;;
32094;SDS011;18608;53.688;10.748;2023-02-08T01:16:50;27.03;;;14.57;;
32094;SDS011;18608;53.688;10.748;2023-02-08T01:19:16;27.90;;;15.33;;
32094;SDS011;18608;53.688;10.748;2023-02-08T01:21:42;20.97;;;14.97;;
32094;SDS011;18608;53.688;10.748;2023-02-08T01:24:08;32.97;;;17.10;;
32094;SDS011;18608;53.688;10.748;2023-02-08T01:26:34;24.27;;;13.40;;
32094;SDS011;18608;53.688;10.748;2023-02-08T01:29:01;25.90;;;14.00;;
32094;SDS011;18608;53.688;10.748;2023-02-08T01:31:28;26.23;;;13.83;;
32094;SDS011;18608;53.688;10.748;2023-02-08T01:33:56;26.63;;;13.83;;
32094;SDS011;18608;53.688;10.748;2023-02-08T01:36:22;24.30;;;13.57;;
32094;SDS011;18608;53.688;10.748;2023-02-08T01:38:49;22.40;;;12.83;;
32094;SDS011;18608;53.688;10.748;2023-02-08T01:41:16;24.47;;;12.70;;
32094;SDS011;18608;53.688;10.748;2023-02-08T01:46:45;25.10;;;14.23;;
32094;SDS011;18608;53.688;10.748;2023-02-08T01:49:29;19.40;;;12.27;;
32094;SDS011;18608;53.688;10.748;2023-02-08T01:52:01;25.43;;;13.90;;
32094;SDS011;18608;53.688;10.748;2023-02-08T01:54:31;23.80;;;13.27;;
32094;SDS011;18608;53.688;10.748;2023-02-08T01:57:00;27.77;;;14.70;;
32094;SDS011;18608;53.688;10.748;2023-02-08T01:59:47;27.20;;;12.47;;
32094;SDS011;18608;53.688;10.748;2023-02-08T02:02:22;24.43;;;13.50;;
32094;SDS011;18608;53.688;10.748;2023-02-08T02:04:49;24.80;;;13.53;;
32094;SDS011;18608;53.688;10.748;2023-02-08T02:07:16;21.03;;;13.33;;
32094;SDS011;18608;53.688;10.748;2023-02-08T02:09:52;22.60;;;12.50;;
32094;SDS011;18608;53.688;10.748;2023-02-08T02:12:23;22.83;;;12.40;;
32094;SDS011;18608;53.688;10.748;2023-02-08T02:14:49;24.43;;;14.00;;
32094;SDS011;18608;53.688;10.748;2023-02-08T02:17:16;22.93;;;12.70;;
32094;SDS011;18608;53.688;10.748;2023-02-08T02:19:49;25.63;;;14.00;;
32094;SDS011;18608;53.688;10.748;2023-02-08T02:31:09;19.40;;;12.70;;
32094;SDS011;18608;53.688;10.748;2023-02-08T02:34:03;25.97;;;13.97;;
32094;SDS011;18608;53.688;10.748;2023-02-08T02:42:13;30.37;;;15.33;;
32094;SDS011;18608;53.688;10.748;2023-02-08T02:45:06;21.00;;;12.97;;
32094;SDS011;18608;53.688;10.748;2023-02-08T02:50:31;26.53;;;14.40;;
32094;SDS011;18608;53.688;10.748;2023-02-08T02:55:55;19.80;;;14.30;;
32094;SDS011;18608;53.688;10.748;2023-02-08T02:58:29;26.13;;;13.37;;
32094;SDS011;18608;53.688;10.748;2023-02-08T03:00:57;25.20;;;14.77;;
32094;SDS011;18608;53.688;10.748;2023-02-08T03:03:24;23.03;;;13.10;;
32094;SDS011;18608;53.688;10.748;2023-02-08T03:05:53;23.50;;;14.87;;
32094;SDS011;18608;53.688;10.748;2023-02-08T03:11:19;32.80;;;16.17;;
32094;SDS011;18608;53.688;10.748;2023-02-08T03:16:39;26.90;;;14.63;;
32094;SDS011;18608;53.688;10.748;2023-02-08T03:19:34;27.20;;;14.10;;
32094;SDS011;18608;53.688;10.748;2023-02-08T03:22:31;32.50;;;14.30;;
32094;SDS011;18608;53.688;10.748;2023-02-08T03:25:07;19.97;;;13.10;;
32094;SDS011;18608;53.688;10.748;2023-02-08T03:27:47;29.83;;;12.60;;
32094;SDS011;18608;53.688;10.748;2023-02-08T03:30:27;26.30;;;13.63;;
32094;SDS011;18608;53.688;10.748;2023-02-08T03:33:02;24.07;;;14.37;;
32094;SDS011;18608;53.688;10.748;2023-02-08T03:35:37;26.00;;;14.17;;
32094;SDS011;18608;53.688;10.748;2023-02-08T03:38:22;30.77;;;14.13;;
32094;SDS011;18608;53.688;10.748;2023-02-08T03:40:53;21.20;;;14.87;;
32094;SDS011;18608;53.688;10.748;2023-02-08T03:43:43;28.33;;;15.67;;
32094;SDS011;18608;53.688;10.748;2023-02-08T03:46:10;21.53;;;12.90;;
32094;SDS011;18608;53.688;10.748;2023-02-08T03:48:44;23.10;;;14.47;;
32094;SDS011;18608;53.688;10.748;2023-02-08T03:51:13;25.43;;;14.90;;
32094;SDS011;18608;53.688;10.748;2023-02-08T03:53:41;21.70;;;13.60;;
32094;SDS011;18608;53.688;10.748;2023-02-08T03:56:27;29.90;;;14.83;;
32094;SDS011;18608;53.688;10.748;2023-02-08T03:59:02;21.27;;;15.27;;
32094;SDS011;18608;53.688;10.748;2023-02-08T04:01:35;28.33;;;15.17;;
32094;SDS011;18608;53.688;10.748;2023-02-08T04:04:08;27.03;;;15.43;;
32094;SDS011;18608;53.688;10.748;2023-02-08T04:06:35;23.70;;;12.83;;
32094;SDS011;18608;53.688;10.748;2023-02-08T04:09:00;25.00;;;13.97;;
32094;SDS011;18608;53.688;10.748;2023-02-08T04:11:26;27.50;;;13.50;;
32094;SDS011;18608;53.688;10.748;2023-02-08T04:13:52;26.77;;;16.13;;
32094;SDS011;18608;53.688;10.748;2023-02-08T04:16:18;26.33;;;14.43;;
32094;SDS011;18608;53.688;10.748;2023-02-08T04:18:44;32.00;;;15.60;;
32094;SDS011;18608;53.688;10.748;2023-02-08T04:21:13;25.63;;;14.30;;
32094;SDS011;18608;53.688;10.748;2023-02-08T04:23:38;25.37;;;14.43;;
32094;SDS011;18608;53.688;10.748;2023-02-08T04:26:04;26.77;;;15.23;;
32094;SDS011;18608;53.688;10.748;2023-02-08T04:28:31;28.53;;;15.03;;
32094;SDS011;18608;53.688;10.748;2023-02-08T04:30:57;26.30;;;14.17;;
32094;SDS011;18608;53.688;10.748;2023-02-08T04:33:22;35.37;;;14.70;;
32094;SDS011;18608;53.688;10.748;2023-02-08T04:35:48;29.07;;;15.30;;
32094;SDS011;18608;53.688;10.748;2023-02-08T04:38:14;23.57;;;14.87;;
32094;SDS011;18608;53.688;10.748;2023-02-08T04:40:39;29.67;;;16.20;;
32094;SDS011;18608;53.688;10.748;2023-02-08T04:43:05;30.47;;;16.33;;
32094;SDS011;18608;53.688;10.748;2023-02-08T04:45:31;28.40;;;14.60;;
32094;SDS011;18608;53.688;10.748;2023-02-08T04:47:57;30.50;;;16.27;;
32094;SDS011;18608;53.688;10.748;2023-02-08T04:50:25;23.20;;;14.90;;
32094;SDS011;18608;53.688;10.748;2023-02-08T04:52:51;28.67;;;16.57;;
32094;SDS011;18608;53.688;10.748;2023-02-08T04:55:17;29.03;;;15.73;;
32094;SDS011;18608;53.688;10.748;2023-02-08T04:57:43;28.60;;;16.30;;
32094;SDS011;18608;53.688;10.748;2023-02-08T05:00:09;27.27;;;16.30;;
32094;SDS011;18608;53.688;10.748;2023-02-08T05:02:35;38.80;;;17.93;;
32094;SDS011;18608;53.688;10.748;2023-02-08T05:05:01;28.57;;;15.97;;
32094;SDS011;18608;53.688;10.748;2023-02-08T05:07:26;35.00;;;16.63;;
32094;SDS011;18608;53.688;10.748;2023-02-08T05:09:52;30.40;;;16.63;;
32094;SDS011;18608;53.688;10.748;2023-02-08T05:12:18;34.70;;;18.23;;
32094;SDS011;18608;53.688;10.748;2023-02-08T05:14:43;31.90;;;15.40;;
32094;SDS011;18608;53.688;10.748;2023-02-08T05:17:09;40.23;;;16.60;;
32094;SDS011;18608;53.688;10.748;2023-02-08T05:19:35;32.93;;;16.83;;
32094;SDS011;18608;53.688;10.748;2023-02-08T05:22:00;41.17;;;17.30;;
32094;SDS011;18608;53.688;10.748;2023-02-08T05:24:26;31.23;;;17.20;;
32094;SDS011;18608;53.688;10.748;2023-02-08T05:26:51;36.90;;;18.00;;
32094;SDS011;18608;53.688;10.748;2023-02-08T05:29:17;41.03;;;19.40;;
32094;SDS011;18608;53.688;10.748;2023-02-08T05:31:43;38.93;;;19.50;;
32094;SDS011;18608;53.688;10.748;2023-02-08T05:34:08;38.20;;;20.00;;
32094;SDS011;18608;53.688;10.748;2023-02-08T05:36:34;32.73;;;19.03;;
32094;SDS011;18608;53.688;10.748;2023-02-08T05:39:00;35.13;;;18.00;;
32094;SDS011;18608;53.688;10.748;2023-02-08T05:41:25;42.30;;;20.00;;
32094;SDS011;18608;53.688;10.748;2023-02-08T05:43:51;39.70;;;19.33;;
32094;SDS011;18608;53.688;10.748;2023-02-08T05:46:16;38.63;;;17.83;;
32094;SDS011;18608;53.688;10.748;2023-02-08T05:48:42;42.63;;;19.87;;
32094;SDS011;18608;53.688;10.748;2023-02-08T05:51:09;39.77;;;16.77;;
32094;SDS011;18608;53.688;10.748;2023-02-08T05:53:35;34.50;;;18.33;;
32094;SDS011;18608;53.688;10.748;2023-02-08T05:56:01;41.47;;;17.70;;
32094;SDS011;18608;53.688;10.748;2023-02-08T05:58:27;40.17;;;20.67;;
32094;SDS011;18608;53.688;10.748;2023-02-08T06:00:53;38.30;;;18.70;;
32094;SDS011;18608;53.688;10.748;2023-02-08T06:03:19;36.57;;;19.77;;
32094;SDS011;18608;53.688;10.748;2023-02-08T06:05:46;45.57;;;19.70;;
32094;SDS011;18608;53.688;10.748;2023-02-08T06:08:12;37.93;;;21.40;;
32094;SDS011;18608;53.688;10.748;2023-02-08T06:10:38;43.37;;;20.67;;
32094;SDS011;18608;53.688;10.748;2023-02-08T06:13:04;42.47;;;19.40;;
32094;SDS011;18608;53.688;10.748;2023-02-08T06:15:30;42.07;;;20.37;;
32094;SDS011;18608;53.688;10.748;2023-02-08T06:17:56;44.60;;;20.80;;
32094;SDS011;18608;53.688;10.748;2023-02-08T06:20:22;42.67;;;21.57;;
32094;SDS011;18608;53.688;10.748;2023-02-08T06:22:47;40.67;;;20.87;;
32094;SDS011;18608;53.688;10.748;2023-02-08T06:25:13;50.77;;;20.93;;
32094;SDS011;18608;53.688;10.748;2023-02-08T06:27:39;48.93;;;22.13;;
32094;SDS011;18608;53.688;10.748;2023-02-08T06:30:07;48.73;;;23.00;;
32094;SDS011;18608;53.688;10.748;2023-02-08T06:32:35;39.43;;;21.17;;
32094;SDS011;18608;53.688;10.748;2023-02-08T06:35:04;50.00;;;23.00;;
32094;SDS011;18608;53.688;10.748;2023-02-08T06:37:31;43.53;;;21.90;;
32094;SDS011;18608;53.688;10.748;2023-02-08T06:39:56;44.00;;;22.70;;
32094;SDS011;18608;53.688;10.748;2023-02-08T06:42:23;44.77;;;20.90;;
32094;SDS011;18608;53.688;10.748;2023-02-08T06:44:50;51.13;;;24.20;;
32094;SDS011;18608;53.688;10.748;2023-02-08T06:47:17;58.40;;;24.60;;
32094;SDS011;18608;53.688;10.748;2023-02-08T06:49:43;51.57;;;24.13;;
32094;SDS011;18608;53.688;10.748;2023-02-08T06:52:09;53.90;;;21.67;;
32094;SDS011;18608;53.688;10.748;2023-02-08T06:54:34;47.67;;;23.60;;
32094;SDS011;18608;53.688;10.748;2023-02-08T06:57:01;49.67;;;22.20;;
32094;SDS011;18608;53.688;10.748;2023-02-08T06:59:27;48.73;;;23.40;;
32094;SDS011;18608;53.688;10.748;2023-02-08T07:01:52;47.30;;;24.30;;
32094;SDS011;18608;53.688;10.748;2023-02-08T07:04:19;49.87;;;23.23;;
32094;SDS011;18608;53.688;10.748;2023-02-08T07:06:48;47.00;;;23.23;;
32094;SDS011;18608;53.688;10.748;2023-02-08T07:09:15;50.73;;;22.10;;
32094;SDS011;18608;53.688;10.748;2023-02-08T07:11:41;45.37;;;22.77;;
32094;SDS011;18608;53.688;10.748;2023-02-08T07:14:09;54.00;;;22.40;;
32094;SDS011;18608;53.688;10.748;2023-02-08T07:16:37;48.67;;;23.63;;
32094;SDS011;18608;53.688;10.748;2023-02-08T07:19:03;53.23;;;22.43;;
32094;SDS011;18608;53.688;10.748;2023-02-08T07:21:29;44.27;;;21.30;;
32094;SDS011;18608;53.688;10.748;2023-02-08T07:23:54;59.73;;;25.70;;
32094;SDS011;18608;53.688;10.748;2023-02-08T07:26:20;51.77;;;23.70;;
32094;SDS011;18608;53.688;10.748;2023-02-08T07:28:46;53.07;;;23.27;;
32094;SDS011;18608;53.688;10.748;2023-02-08T07:31:12;55.40;;;24.50;;
32094;SDS011;18608;53.688;10.748;2023-02-08T07:33:40;52.80;;;24.80;;
32094;SDS011;18608;53.688;10.748;2023-02-08T07:36:07;56.87;;;26.07;;
32094;SDS011;18608;53.688;10.748;2023-02-08T07:38:34;52.23;;;24.33;;
32094;SDS011;18608;53.688;10.748;2023-02-08T07:41:08;43.47;;;22.70;;
32094;SDS011;18608;53.688;10.748;2023-02-08T07:43:36;48.83;;;25.60;;
32094;SDS011;18608;53.688;10.748;2023-02-08T07:46:06;51.80;;;22.10;;
32094;SDS011;18608;53.688;10.748;2023-02-08T07:48:33;50.83;;;24.93;;
32094;SDS011;18608;53.688;10.748;2023-02-08T07:50:59;48.73;;;23.47;;
32094;SDS011;18608;53.688;10.748;2023-02-08T07:53:24;48.80;;;22.53;;
32094;SDS011;18608;53.688;10.748;2023-02-08T07:55:50;48.87;;;22.00;;
32094;SDS011;18608;53.688;10.748;2023-02-08T07:58:16;50.67;;;22.87;;
32094;SDS011;18608;53.688;10.748;2023-02-08T08:00:41;57.83;;;24.23;;
32094;SDS011;18608;53.688;10.748;2023-02-08T08:03:07;45.73;;;23.03;;
32094;SDS011;18608;53.688;10.748;2023-02-08T08:05:33;51.83;;;26.33;;
32094;SDS011;18608;53.688;10.748;2023-02-08T08:07:58;56.20;;;24.63;;
32094;SDS011;18608;53.688;10.748;2023-02-08T08:10:24;52.10;;;22.30;;
32094;SDS011;18608;53.688;10.748;2023-02-08T08:12:50;58.10;;;25.80;;
32094;SDS011;18608;53.688;10.748;2023-02-08T08:15:15;52.30;;;23.83;;
32094;SDS011;18608;53.688;10.748;2023-02-08T08:17:41;44.73;;;23.93;;
32094;SDS011;18608;53.688;10.748;2023-02-08T08:20:08;52.30;;;24.13;;
32094;SDS011;18608;53.688;10.748;2023-02-08T08:22:35;51.03;;;22.03;;
32094;SDS011;18608;53.688;10.748;2023-02-08T08:25:00;42.70;;;23.50;;
32094;SDS011;18608;53.688;10.748;2023-02-08T08:27:26;54.40;;;25.30;;
32094;SDS011;18608;53.688;10.748;2023-02-08T08:29:52;43.27;;;21.47;;
32094;SDS011;18608;53.688;10.748;2023-02-08T08:32:17;48.40;;;22.63;;
32094;SDS011;18608;53.688;10.748;2023-02-08T08:34:43;45.63;;;21.70;;
32094;SDS011;18608;53.688;10.748;2023-02-08T08:37:09;47.50;;;20.20;;
32094;SDS011;18608;53.688;10.748;2023-02-08T08:39:34;47.10;;;21.93;;
32094;SDS011;18608;53.688;10.748;2023-02-08T08:42:01;46.13;;;23.50;;
32094;SDS011;18608;53.688;10.748;2023-02-08T08:44:31;50.40;;;18.87;;
32094;SDS011;18608;53.688;10.748;2023-02-08T08:46:57;49.83;;;20.80;;
32094;SDS011;18608;53.688;10.748;2023-02-08T08:49:24;44.67;;;20.63;;
32094;SDS011;18608;53.688;10.748;2023-02-08T08:51:51;35.90;;;20.60;;
32094;SDS011;18608;53.688;10.748;2023-02-08T08:54:16;38.03;;;20.30;;
32094;SDS011;18608;53.688;10.748;2023-02-08T08:56:42;42.33;;;19.30;;
32094;SDS011;18608;53.688;10.748;2023-02-08T08:59:08;41.10;;;19.23;;
32094;SDS011;18608;53.688;10.748;2023-02-08T09:01:34;40.47;;;20.17;;
32094;SDS011;18608;53.688;10.748;2023-02-08T09:04:00;40.63;;;18.77;;
32094;SDS011;18608;53.688;10.748;2023-02-08T09:06:26;37.37;;;18.57;;
32094;SDS011;18608;53.688;10.748;2023-02-08T09:08:51;37.23;;;18.60;;
32094;SDS011;18608;53.688;10.748;2023-02-08T09:11:17;42.40;;;19.20;;
32094;SDS011;18608;53.688;10.748;2023-02-08T09:13:43;31.57;;;17.93;;
32094;SDS011;18608;53.688;10.748;2023-02-08T09:16:12;32.23;;;16.83;;
32094;SDS011;18608;53.688;10.748;2023-02-08T09:18:40;34.30;;;17.23;;
32094;SDS011;18608;53.688;10.748;2023-02-08T09:21:07;40.97;;;18.40;;
32094;SDS011;18608;53.688;10.748;2023-02-08T09:23:34;37.50;;;16.90;;
32094;SDS011;18608;53.688;10.748;2023-02-08T09:26:03;42.93;;;17.97;;
32094;SDS011;18608;53.688;10.748;2023-02-08T09:28:34;32.87;;;15.70;;
32094;SDS011;18608;53.688;10.748;2023-02-08T09:31:06;29.37;;;15.43;;
32094;SDS011;18608;53.688;10.748;2023-02-08T09:33:36;31.10;;;16.17;;
32094;SDS011;18608;53.688;10.748;2023-02-08T09:36:01;33.63;;;15.60;;
32094;SDS011;18608;53.688;10.748;2023-02-08T09:38:28;30.57;;;15.33;;
32094;SDS011;18608;53.688;10.748;2023-02-08T09:43:41;30.70;;;16.93;;
32094;SDS011;18608;53.688;10.748;2023-02-08T09:46:21;28.97;;;15.10;;
32094;SDS011;18608;53.688;10.748;2023-02-08T09:48:50;30.00;;;14.23;;
32094;SDS011;18608;53.688;10.748;2023-02-08T09:51:38;26.90;;;15.00;;
32094;SDS011;18608;53.688;10.748;2023-02-08T09:54:11;37.63;;;16.50;;
32094;SDS011;18608;53.688;10.748;2023-02-08T09:56:42;34.80;;;15.30;;
32094;SDS011;18608;53.688;10.748;2023-02-08T09:59:26;34.70;;;14.70;;
32094;SDS011;18608;53.688;10.748;2023-02-08T10:01:58;27.83;;;15.07;;
32094;SDS011;18608;53.688;10.748;2023-02-08T10:04:49;37.40;;;15.23;;
32094;SDS011;18608;53.688;10.748;2023-02-08T10:07:52;29.13;;;14.70;;
32094;SDS011;18608;53.688;10.748;2023-02-08T10:10:20;27.40;;;14.67;;
32094;SDS011;18608;53.688;10.748;2023-02-08T10:20:52;27.53;;;13.13;;
32094;SDS011;18608;53.688;10.748;2023-02-08T10:34:45;31.77;;;15.27;;
32094;SDS011;18608;53.688;10.748;2023-02-08T10:37:26;26.83;;;15.07;;
32094;SDS011;18608;53.688;10.748;2023-02-08T10:39:56;28.03;;;14.13;;
32094;SDS011;18608;53.688;10.748;2023-02-08T10:42:27;20.73;;;12.33;;
32094;SDS011;18608;53.688;10.748;2023-02-08T10:45:14;32.43;;;15.30;;
32094;SDS011;18608;53.688;10.748;2023-02-08T10:47:49;25.47;;;11.90;;
32094;SDS011;18608;53.688;10.748;2023-02-08T10:50:53;25.70;;;14.60;;
32094;SDS011;18608;53.688;10.748;2023-02-08T10:53:13;24.73;;;14.13;;
32094;SDS011;18608;53.688;10.748;2023-02-08T10:55:45;23.47;;;12.43;;
32094;SDS011;18608;53.688;10.748;2023-02-08T10:58:18;28.83;;;13.03;;
32094;SDS011;18608;53.688;10.748;2023-02-08T11:00:46;21.17;;;12.00;;
32094;SDS011;18608;53.688;10.748;2023-02-08T11:03:23;28.23;;;13.90;;
32094;SDS011;18608;53.688;10.748;2023-02-08T11:05:52;25.63;;;13.53;;
32094;SDS011;18608;53.688;10.748;2023-02-08T11:08:20;25.63;;;12.37;;
32094;SDS011;18608;53.688;10.748;2023-02-08T11:11:06;28.57;;;14.53;;
32094;SDS011;18608;53.688;10.748;2023-02-08T11:13:35;24.33;;;13.37;;
32094;SDS011;18608;53.688;10.748;2023-02-08T11:16:06;24.83;;;13.17;;
32094;SDS011;18608;53.688;10.748;2023-02-08T11:18:39;25.33;;;12.93;;
32094;SDS011;18608;53.688;10.748;2023-02-08T11:21:24;27.57;;;14.33;;
32094;SDS011;18608;53.688;10.748;2023-02-08T11:23:54;24.13;;;13.10;;
32094;SDS011;18608;53.688;10.748;2023-02-08T11:26:23;26.60;;;13.20;;
32094;SDS011;18608;53.688;10.748;2023-02-08T11:31:25;26.43;;;14.20;;
32094;SDS011;18608;53.688;10.748;2023-02-08T11:34:03;32.40;;;14.97;;
32094;SDS011;18608;53.688;10.748;2023-02-08T11:36:31;29.13;;;14.40;;
32094;SDS011;18608;53.688;10.748;2023-02-08T11:39:03;29.43;;;14.40;;
32094;SDS011;18608;53.688;10.748;2023-02-08T11:41:48;33.17;;;13.57;;
32094;SDS011;18608;53.688;10.748;2023-02-08T11:44:28;27.37;;;13.97;;
32094;SDS011;18608;53.688;10.748;2023-02-08T11:46:59;32.93;;;16.57;;
32094;SDS011;18608;53.688;10.748;2023-02-08T11:49:34;29.77;;;15.00;;
32094;SDS011;18608;53.688;10.748;2023-02-08T11:52:03;22.30;;;13.13;;
32094;SDS011;18608;53.688;10.748;2023-02-08T11:54:32;29.20;;;14.70;;
32094;SDS011;18608;53.688;10.748;2023-02-08T11:57:00;29.33;;;15.23;;
32094;SDS011;18608;53.688;10.748;2023-02-08T11:59:27;30.43;;;15.97;;
32094;SDS011;18608;53.688;10.748;2023-02-08T12:01:54;28.00;;;15.37;;
32094;SDS011;18608;53.688;10.748;2023-02-08T12:04:19;25.73;;;14.17;;
32094;SDS011;18608;53.688;10.748;2023-02-08T12:12:30;28.70;;;16.97;;
32094;SDS011;18608;53.688;10.748;2023-02-08T12:15:14;34.20;;;17.80;;
32094;SDS011;18608;53.688;10.748;2023-02-08T12:20:35;27.17;;;14.40;;
32094;SDS011;18608;53.688;10.748;2023-02-08T12:23:20;25.63;;;14.53;;
32094;SDS011;18608;53.688;10.748;2023-02-08T12:26:13;32.83;;;15.50;;
32094;SDS011;18608;53.688;10.748;2023-02-08T12:37:45;24.20;;;14.53;;
32094;SDS011;18608;53.688;10.748;2023-02-08T12:40:51;30.63;;;13.57;;
32094;SDS011;18608;53.688;10.748;2023-02-08T12:43:50;24.40;;;15.53;;
32094;SDS011;18608;53.688;10.748;2023-02-08T12:51:32;31.60;;;14.37;;
32094;SDS011;18608;53.688;10.748;2023-02-08T12:54:28;28.57;;;13.93;;
32094;SDS011;18608;53.688;10.748;2023-02-08T12:56:58;24.00;;;13.40;;
32094;SDS011;18608;53.688;10.748;2023-02-08T12:59:34;26.03;;;13.37;;
32094;SDS011;18608;53.688;10.748;2023-02-08T13:02:30;27.10;;;12.67;;
32094;SDS011;18608;53.688;10.748;2023-02-08T13:04:58;21.60;;;12.07;;
32094;SDS011;18608;53.688;10.748;2023-02-08T13:07:30;26.80;;;12.93;;
32094;SDS011;18608;53.688;10.748;2023-02-08T13:12:29;27.40;;;14.03;;
32094;SDS011;18608;53.688;10.748;2023-02-08T13:15:06;24.63;;;13.90;;
32094;SDS011;18608;53.688;10.748;2023-02-08T13:20:19;33.93;;;15.73;;
32094;SDS011;18608;53.688;10.748;2023-02-08T13:22:47;29.73;;;16.77;;
32094;SDS011;18608;53.688;10.748;2023-02-08T13:25:25;30.13;;;15.90;;
32094;SDS011;18608;53.688;10.748;2023-02-08T13:28:01;30.63;;;15.30;;
32094;SDS011;18608;53.688;10.748;2023-02-08T13:30:32;31.67;;;16.77;;
32094;SDS011;18608;53.688;10.748;2023-02-08T13:33:05;36.53;;;18.20;;
32094;SDS011;18608;53.688;10.748;2023-02-08T13:35:40;29.90;;;16.80;;
32094;SDS011;18608;53.688;10.748;2023-02-08T13:38:24;31.70;;;16.10;;
32094;SDS011;18608;53.688;10.748;2023-02-08T13:41:00;36.20;;;18.27;;
32094;SDS011;18608;53.688;10.748;2023-02-08T13:43:49;32.90;;;17.87;;
32094;SDS011;18608;53.688;10.748;2023-02-08T13:46:24;31.77;;;16.17;;
32094;SDS011;18608;53.688;10.748;2023-02-08T13:48:56;38.90;;;19.50;;
32094;SDS011;18608;53.688;10.748;2023-02-08T13:58:59;31.33;;;16.13;;
32094;SDS011;18608;53.688;10.748;2023-02-08T14:01:26;37.60;;;17.30;;
32094;SDS011;18608;53.688;10.748;2023-02-08T14:07:04;37.03;;;15.70;;
32094;SDS011;18608;53.688;10.748;2023-02-08T14:12:28;30.67;;;15.30;;
32094;SDS011;18608;53.688;10.748;2023-02-08T14:17:43;32.00;;;15.93;;
32094;SDS011;18608;53.688;10.748;2023-02-08T14:22:51;43.97;;;15.77;;
32094;SDS011;18608;53.688;10.748;2023-02-08T14:25:20;34.47;;;15.93;;
32094;SDS011;18608;53.688;10.748;2023-02-08T14:30:23;24.20;;;14.30;;
32094;SDS011;18608;53.688;10.748;2023-02-08T14:33:07;30.50;;;15.30;;
32094;SDS011;18608;53.688;10.748;2023-02-08T14:35:38;26.73;;;13.97;;
32094;SDS011;18608;53.688;10.748;2023-02-08T14:41:04;33.60;;;14.10;;
32094;SDS011;18608;53.688;10.748;2023-02-08T14:43:38;31.57;;;14.20;;
32094;SDS011;18608;53.688;10.748;2023-02-08T14:49:13;26.30;;;16.07;;
32094;SDS011;18608;53.688;10.748;2023-02-08T14:51:43;28.90;;;14.93;;
32094;SDS011;18608;53.688;10.748;2023-02-08T14:56:53;27.03;;;13.83;;
32094;SDS011;18608;53.688;10.748;2023-02-08T14:59:25;27.50;;;15.00;;
32094;SDS011;18608;53.688;10.748;2023-02-08T15:04:22;29.77;;;15.80;;
32094;SDS011;18608;53.688;10.748;2023-02-08T15:09:39;27.13;;;15.00;;
32094;SDS011;18608;53.688;10.748;2023-02-08T15:12:23;27.13;;;14.83;;
32094;SDS011;18608;53.688;10.748;2023-02-08T15:14:53;30.10;;;16.17;;
32094;SDS011;18608;53.688;10.748;2023-02-08T15:17:40;28.73;;;13.50;;
32094;SDS011;18608;53.688;10.748;2023-02-08T15:22:44;28.03;;;14.77;;
32094;SDS011;18608;53.688;10.748;2023-02-08T15:25:13;26.23;;;14.90;;
32094;SDS011;18608;53.688;10.748;2023-02-08T15:27:46;29.00;;;16.00;;
32094;SDS011;18608;53.688;10.748;2023-02-08T15:30:23;26.80;;;14.43;;
32094;SDS011;18608;53.688;10.748;2023-02-08T15:32:50;24.23;;;13.30;;
32094;SDS011;18608;53.688;10.748;2023-02-08T15:35:17;33.07;;;14.70;;
32094;SDS011;18608;53.688;10.748;2023-02-08T15:37:48;28.13;;;14.70;;
32094;SDS011;18608;53.688;10.748;2023-02-08T15:42:54;29.37;;;15.47;;
32094;SDS011;18608;53.688;10.748;2023-02-08T15:45:27;28.70;;;14.50;;
32094;SDS011;18608;53.688;10.748;2023-02-08T15:47:56;26.90;;;13.87;;
32094;SDS011;18608;53.688;10.748;2023-02-08T15:50:22;31.30;;;15.73;;
32094;SDS011;18608;53.688;10.748;2023-02-08T15:52:57;29.37;;;16.57;;
32094;SDS011;18608;53.688;10.748;2023-02-08T15:55:27;26.53;;;14.40;;
32094;SDS011;18608;53.688;10.748;2023-02-08T15:58:06;30.33;;;14.70;;
32094;SDS011;18608;53.688;10.748;2023-02-08T16:00:40;35.67;;;15.43;;
32094;SDS011;18608;53.688;10.748;2023-02-08T16:03:15;24.00;;;14.50;;
32094;SDS011;18608;53.688;10.748;2023-02-08T16:05:48;28.70;;;15.17;;
32094;SDS011;18608;53.688;10.748;2023-02-08T16:08:20;28.10;;;14.67;;
32094;SDS011;18608;53.688;10.748;2023-02-08T16:10:48;36.67;;;16.67;;
32094;SDS011;18608;53.688;10.748;2023-02-08T16:15:53;30.93;;;14.97;;
32094;SDS011;18608;53.688;10.748;2023-02-08T16:21:26;29.60;;;15.80;;
32094;SDS011;18608;53.688;10.748;2023-02-08T16:29:06;23.97;;;13.20;;
32094;SDS011;18608;53.688;10.748;2023-02-08T16:31:44;28.73;;;15.57;;
32094;SDS011;18608;53.688;10.748;2023-02-08T16:34:18;35.57;;;18.50;;
32094;SDS011;18608;53.688;10.748;2023-02-08T16:36:48;35.27;;;18.27;;
32094;SDS011;18608;53.688;10.748;2023-02-08T16:44:23;32.67;;;17.73;;